createdAt,value
2023-05-19T00:00:28.599Z,69.57
2023-05-19T00:02:56.202Z,70.10
2023-05-19T00:05:23.123Z,70.06
2023-05-19T00:07:49.818Z,70.46
2023-05-19T00:10:16.673Z,70.31
2023-05-19T00:12:43.717Z,70.92
2023-05-19T00:15:10.600Z,70.84
2023-05-19T00:17:38.325Z,70.35
2023-05-19T00:20:07.392Z,70.39
2023-05-19T00:22:34.253Z,71.56
2023-05-19T00:25:00.796Z,71.61
2023-05-19T00:27:27.219Z,71.23
2023-05-19T00:29:53.569Z,70.49
2023-05-19T00:32:19.991Z,70.71
2023-05-19T00:34:48.415Z,71.75
2023-05-19T00:37:14.769Z,71.53
2023-05-19T00:39:41.155Z,71.47
2023-05-19T00:42:07.576Z,71.45
2023-05-19T00:44:33.922Z,72.08
2023-05-19T00:47:00.438Z,73.30
2023-05-19T00:49:26.916Z,72.44
2023-05-19T00:51:53.262Z,73.05
2023-05-19T00:54:19.619Z,73.24
2023-05-19T00:56:46.031Z,73.62
2023-05-19T00:59:12.447Z,73.29
2023-05-19T01:01:38.998Z,73.14
2023-05-19T01:04:05.650Z,72.58
2023-05-19T01:06:32.163Z,72.58
2023-05-19T01:08:58.590Z,72.80
2023-05-19T01:11:25.219Z,72.67
2023-05-19T01:13:51.606Z,72.97
2023-05-19T01:16:23.921Z,74.49
2023-05-19T01:18:50.974Z,74.21
2023-05-19T01:21:17.359Z,74.15
2023-05-19T01:23:49.224Z,74.38
2023-05-19T01:26:25.998Z,74.71
2023-05-19T01:29:09.302Z,74.21
2023-05-19T01:31:37.014Z,73.96
2023-05-19T01:34:04.713Z,74.00
2023-05-19T01:36:31.139Z,73.97
2023-05-19T01:38:58.423Z,73.90
2023-05-19T01:41:24.889Z,74.00
2023-05-19T01:43:51.301Z,74.16
2023-05-19T01:46:17.925Z,73.76
2023-05-19T01:48:44.849Z,74.98
2023-05-19T01:51:11.195Z,74.48
2023-05-19T01:53:37.593Z,76.79
2023-05-19T01:56:04.907Z,75.75
2023-05-19T01:58:31.323Z,75.29
2023-05-19T02:00:57.784Z,74.70
2023-05-19T02:03:27.237Z,74.28
2023-05-19T02:06:12.470Z,74.26
2023-05-19T02:08:38.827Z,73.77
2023-05-19T02:11:09.467Z,74.75
2023-05-19T02:13:36.983Z,74.40
2023-05-19T02:16:04.336Z,74.30
2023-05-19T02:18:31.395Z,74.45
2023-05-19T02:20:57.791Z,74.10
2023-05-19T02:23:24.332Z,74.48
2023-05-19T02:25:50.728Z,74.99
2023-05-19T02:28:17.402Z,74.38
2023-05-19T02:30:43.789Z,73.73
2023-05-19T02:33:11.417Z,74.88
2023-05-19T02:35:37.864Z,74.02
2023-05-19T02:38:04.356Z,74.78
2023-05-19T02:40:30.885Z,74.49
2023-05-19T02:42:57.663Z,74.62
2023-05-19T02:45:24.221Z,74.21
2023-05-19T02:47:50.695Z,74.34
2023-05-19T02:50:17.312Z,73.71
2023-05-19T02:52:43.710Z,73.38
2023-05-19T02:55:10.072Z,73.60
2023-05-19T02:57:36.525Z,73.35
2023-05-19T03:00:03.467Z,73.79
2023-05-19T03:02:30.014Z,73.43
2023-05-19T03:04:56.502Z,73.18
2023-05-19T03:07:25.235Z,73.49
2023-05-19T03:09:52.447Z,73.32
2023-05-19T03:12:18.857Z,73.03
2023-05-19T03:14:45.289Z,73.44
2023-05-19T03:17:12.306Z,73.38
2023-05-19T03:19:38.736Z,73.12
2023-05-19T03:22:05.162Z,72.77
2023-05-19T03:24:31.633Z,73.41
2023-05-19T03:26:58.136Z,73.25
2023-05-19T03:29:24.495Z,74.23
2023-05-19T03:31:52.016Z,74.52
2023-05-19T03:34:18.425Z,73.95
2023-05-19T03:36:45.075Z,74.43
2023-05-19T03:39:11.666Z,74.06
2023-05-19T03:41:38.118Z,74.10
2023-05-19T03:44:04.639Z,74.18
2023-05-19T03:46:31.055Z,73.73
2023-05-19T03:48:57.498Z,75.58
2023-05-19T03:51:23.866Z,75.11
2023-05-19T03:53:50.276Z,74.74
2023-05-19T03:56:18.186Z,74.78
2023-05-19T03:58:45.070Z,74.51
2023-05-19T04:01:11.901Z,74.14
2023-05-19T04:03:38.481Z,74.17
2023-05-19T04:06:04.994Z,73.71
2023-05-19T04:08:38.764Z,73.63
2023-05-19T04:11:07.155Z,74.25
2023-05-19T04:13:34.036Z,74.03
2023-05-19T04:16:00.436Z,74.71
2023-05-19T04:18:28.932Z,73.60
2023-05-19T04:20:55.790Z,74.20
2023-05-19T04:23:22.189Z,73.44
2023-05-19T04:25:48.814Z,73.04
2023-05-19T04:28:15.566Z,73.31
2023-05-19T04:30:42.852Z,73.62
2023-05-19T04:33:09.399Z,72.99
2023-05-19T04:35:38.055Z,72.23
2023-05-19T04:38:04.431Z,72.18
2023-05-19T04:40:31.513Z,72.24
2023-05-19T04:42:59.039Z,72.04
2023-05-19T04:45:26.124Z,71.49
2023-05-19T04:47:52.795Z,71.39
2023-05-19T04:50:19.612Z,70.62
2023-05-19T04:52:45.956Z,70.93
2023-05-19T04:55:13.230Z,71.25
2023-05-19T04:57:40.014Z,70.48
2023-05-19T05:00:08.723Z,70.49
2023-05-19T05:02:35.257Z,70.79
2023-05-19T05:05:01.664Z,69.98
2023-05-19T05:07:29.361Z,70.75
2023-05-19T05:09:56.727Z,70.87
2023-05-19T05:12:23.174Z,70.48
2023-05-19T05:14:51.188Z,70.71
2023-05-19T05:17:17.758Z,71.08
2023-05-19T05:19:44.355Z,71.00
2023-05-19T05:22:10.926Z,70.43
2023-05-19T05:24:37.461Z,70.28
2023-05-19T05:27:04.523Z,71.01
2023-05-19T05:29:30.951Z,70.49
2023-05-19T05:31:57.895Z,70.68
2023-05-19T05:34:24.482Z,69.97
2023-05-19T05:36:51.044Z,70.22
2023-05-19T05:39:17.540Z,69.46
2023-05-19T05:41:43.912Z,69.47
2023-05-19T05:44:10.365Z,70.07
2023-05-19T05:46:36.941Z,69.09
2023-05-19T05:49:03.535Z,69.31
2023-05-19T05:51:30.167Z,69.06
2023-05-19T05:53:56.607Z,68.42
2023-05-19T05:56:23.141Z,68.35
2023-05-19T05:58:50.541Z,68.87
2023-05-19T06:01:18.020Z,68.49
2023-05-19T06:03:44.838Z,67.55
2023-05-19T06:06:11.676Z,67.35
2023-05-19T06:08:38.062Z,67.06
2023-05-19T06:11:09.084Z,67.03
2023-05-19T06:13:38.836Z,66.56
2023-05-19T06:16:05.742Z,66.75
2023-05-19T06:18:32.464Z,67.00
2023-05-19T06:20:58.933Z,66.69
2023-05-19T06:23:26.829Z,66.79
2023-05-19T06:25:53.336Z,66.82
2023-05-19T06:28:19.828Z,65.97
2023-05-19T06:30:46.259Z,65.90
2023-05-19T06:33:12.618Z,65.92
2023-05-19T06:35:39.126Z,65.96
2023-05-19T06:38:05.608Z,64.92
2023-05-19T06:40:32.280Z,64.73
2023-05-19T06:42:58.894Z,64.92
2023-05-19T06:45:25.432Z,65.43
2023-05-19T06:47:51.924Z,65.39
2023-05-19T06:50:18.471Z,64.90
2023-05-19T06:52:46.947Z,64.87
2023-05-19T06:55:13.336Z,64.42
2023-05-19T06:57:39.858Z,62.88
2023-05-19T07:00:09.610Z,63.60
2023-05-19T07:02:36.055Z,63.57
2023-05-19T07:05:03.212Z,63.03
2023-05-19T07:07:29.613Z,62.49
2023-05-19T07:09:56.254Z,63.14
2023-05-19T07:12:22.701Z,62.67
2023-05-19T07:14:49.070Z,62.59
2023-05-19T07:17:15.923Z,62.91
2023-05-19T07:19:42.350Z,61.28
2023-05-19T07:22:08.807Z,61.96
2023-05-19T07:24:37.255Z,60.72
2023-05-19T07:27:03.774Z,60.89
2023-05-19T07:29:30.125Z,61.26
2023-05-19T07:31:57.971Z,61.18
2023-05-19T07:34:24.809Z,61.59
2023-05-19T07:36:52.066Z,59.44
2023-05-19T07:39:18.546Z,60.18
2023-05-19T07:41:45.140Z,59.66
2023-05-19T07:44:11.548Z,60.12
2023-05-19T07:46:38.113Z,60.49
2023-05-19T07:49:04.713Z,60.66
2023-05-19T07:51:31.776Z,59.65
2023-05-19T07:53:58.292Z,60.50
2023-05-19T07:56:25.020Z,60.49
2023-05-19T07:58:51.782Z,60.60
2023-05-19T08:01:18.173Z,60.20
2023-05-19T08:03:44.695Z,59.88
2023-05-19T08:06:11.230Z,59.62
2023-05-19T08:08:37.686Z,60.07
2023-05-19T08:11:04.576Z,60.32
2023-05-19T08:13:31.434Z,59.99
2023-05-19T08:15:59.923Z,60.08
2023-05-19T08:18:26.779Z,60.36
2023-05-19T08:20:53.203Z,59.53
2023-05-19T08:23:19.682Z,60.12
2023-05-19T08:25:46.116Z,59.03
2023-05-19T08:28:12.495Z,58.82
2023-05-19T08:30:38.972Z,58.74
2023-05-19T08:33:05.525Z,58.78
2023-05-19T08:35:32.000Z,59.20
2023-05-19T08:37:58.372Z,59.00
2023-05-19T08:40:24.869Z,58.02
2023-05-19T08:42:51.335Z,58.65
2023-05-19T08:45:17.715Z,59.13
2023-05-19T08:47:45.825Z,59.01
2023-05-19T08:50:12.232Z,58.39
2023-05-19T08:52:47.877Z,58.74
2023-05-19T08:55:24.081Z,59.24
2023-05-19T08:57:50.855Z,58.95
2023-05-19T09:00:17.296Z,58.42
2023-05-19T09:02:50.795Z,59.41
2023-05-19T09:05:27.584Z,59.77
2023-05-19T09:07:54.082Z,59.83
2023-05-19T09:10:20.514Z,59.89
2023-05-19T09:12:47.704Z,60.36
2023-05-19T09:15:17.470Z,60.02
2023-05-19T09:17:44.807Z,58.83
2023-05-19T09:20:11.542Z,59.54
2023-05-19T09:22:41.771Z,59.21
2023-05-19T09:25:17.589Z,59.56
2023-05-19T09:27:43.989Z,59.46
2023-05-19T09:30:10.532Z,59.63
2023-05-19T09:32:37.049Z,59.74
2023-05-19T09:35:04.120Z,59.06
2023-05-19T09:37:31.012Z,58.85
2023-05-19T09:39:57.769Z,58.47
2023-05-19T09:42:25.939Z,58.52
2023-05-19T09:45:01.871Z,59.38
2023-05-19T09:47:29.094Z,59.31
2023-05-19T09:49:56.887Z,59.77
2023-05-19T09:52:23.272Z,59.41
2023-05-19T09:54:51.766Z,59.34
2023-05-19T09:57:18.468Z,59.49
2023-05-19T09:59:44.846Z,58.92
2023-05-19T10:02:15.911Z,59.21
2023-05-19T10:04:42.368Z,58.92
2023-05-19T10:07:08.772Z,58.73
2023-05-19T10:09:35.191Z,59.00
2023-05-19T10:12:02.071Z,58.97
2023-05-19T10:14:28.835Z,57.97
2023-05-19T10:16:56.593Z,57.46
2023-05-19T10:19:23.725Z,57.95
2023-05-19T10:21:50.178Z,59.08
2023-05-19T10:24:16.823Z,58.30
2023-05-19T10:26:44.336Z,58.39
2023-05-19T10:29:12.949Z,58.31
2023-05-19T10:31:40.256Z,58.38
2023-05-19T10:34:24.754Z,58.96
2023-05-19T10:36:58.194Z,58.44
2023-05-19T10:39:32.787Z,58.12
2023-05-19T10:42:14.098Z,58.00
2023-05-19T10:44:53.801Z,58.74
2023-05-19T10:47:24.163Z,58.18
2023-05-19T10:49:54.273Z,57.70
2023-05-19T10:52:25.830Z,58.47
2023-05-19T10:54:54.362Z,58.43
2023-05-19T10:57:27.220Z,58.87
2023-05-19T10:59:53.621Z,58.73
2023-05-19T11:02:47.456Z,58.34
2023-05-19T11:05:15.025Z,58.45
2023-05-19T11:07:43.472Z,57.67
2023-05-19T11:10:10.126Z,57.38
2023-05-19T11:12:44.290Z,57.13
2023-05-19T11:15:14.311Z,57.18
2023-05-19T11:17:42.357Z,57.07
2023-05-19T11:20:11.120Z,57.05
2023-05-19T11:22:38.833Z,56.71
2023-05-19T11:25:05.256Z,56.20
2023-05-19T11:27:32.613Z,56.01
2023-05-19T11:30:00.036Z,56.09
2023-05-19T11:32:27.096Z,55.77
2023-05-19T11:34:53.838Z,55.80
2023-05-19T11:37:20.232Z,55.23
2023-05-19T11:39:47.428Z,54.33
2023-05-19T11:42:13.993Z,55.28
2023-05-19T11:44:46.179Z,54.99
2023-05-19T11:47:16.279Z,55.37
2023-05-19T11:49:47.860Z,54.88
2023-05-19T11:52:14.356Z,53.52
2023-05-19T11:54:42.181Z,54.60
2023-05-19T11:57:14.091Z,53.50
2023-05-19T11:59:48.202Z,54.72
2023-05-19T12:02:19.025Z,53.97
2023-05-19T12:04:45.815Z,53.90
2023-05-19T12:07:13.027Z,54.51
2023-05-19T12:09:39.748Z,54.48
2023-05-19T12:12:06.254Z,55.25
2023-05-19T12:14:32.696Z,55.20
2023-05-19T12:16:59.465Z,55.58
2023-05-19T12:19:26.229Z,56.10
2023-05-19T12:21:52.966Z,56.01
2023-05-19T12:24:19.903Z,56.94
2023-05-19T12:26:47.113Z,57.79
2023-05-19T12:29:13.794Z,57.26
2023-05-19T12:31:40.441Z,56.67
2023-05-19T12:34:06.888Z,58.26
2023-05-19T12:36:33.317Z,58.57
2023-05-19T12:38:59.992Z,58.82
2023-05-19T12:41:27.322Z,58.48
2023-05-19T12:43:56.497Z,59.20
2023-05-19T12:46:23.521Z,60.59
2023-05-19T12:48:50.211Z,59.23
2023-05-19T12:51:17.827Z,60.38
2023-05-19T12:53:44.681Z,60.45
2023-05-19T12:56:14.979Z,61.43
2023-05-19T12:58:41.872Z,62.17
2023-05-19T13:01:15.153Z,62.52
2023-05-19T13:03:42.540Z,62.49
2023-05-19T13:06:12.272Z,63.67
2023-05-19T13:08:40.053Z,62.66
2023-05-19T13:11:06.484Z,62.96
2023-05-19T13:13:32.910Z,61.39
2023-05-19T13:15:59.356Z,62.82
2023-05-19T13:18:27.498Z,63.71
2023-05-19T13:20:54.671Z,62.97
2023-05-19T13:23:21.087Z,63.44
2023-05-19T13:25:59.402Z,63.95
2023-05-19T13:28:26.459Z,64.49
2023-05-19T13:30:53.418Z,65.61
2023-05-19T13:33:20.020Z,65.88
2023-05-19T13:35:46.528Z,66.49
2023-05-19T13:38:14.617Z,67.98
2023-05-19T13:40:46.551Z,68.40
2023-05-19T13:43:13.159Z,68.33
2023-05-19T13:45:41.102Z,68.46
2023-05-19T13:48:07.903Z,69.08
2023-05-19T13:50:34.491Z,69.28
2023-05-19T13:53:00.939Z,69.71
2023-05-19T13:55:27.475Z,70.03
2023-05-19T13:57:53.926Z,69.74
2023-05-19T14:00:21.328Z,69.34
2023-05-19T14:02:47.845Z,70.86
2023-05-19T14:05:14.371Z,70.17
2023-05-19T14:07:41.293Z,69.05
2023-05-19T14:10:07.988Z,69.43
2023-05-19T14:12:45.131Z,70.50
2023-05-19T14:15:21.891Z,71.00
2023-05-19T14:17:49.097Z,69.91
2023-05-19T14:20:15.768Z,71.66
2023-05-19T14:22:42.192Z,72.16
2023-05-19T14:25:09.985Z,72.17
2023-05-19T14:27:36.484Z,72.75
2023-05-19T14:30:03.309Z,72.39
2023-05-19T14:32:30.635Z,73.82
2023-05-19T14:34:57.257Z,74.39
2023-05-19T14:37:24.180Z,73.20
2023-05-19T14:39:50.932Z,73.82
2023-05-19T14:42:38.934Z,73.15
2023-05-19T14:45:07.500Z,73.01
2023-05-19T14:47:35.116Z,72.49
2023-05-19T14:50:01.519Z,74.22
2023-05-19T14:52:27.997Z,73.02
2023-05-19T14:54:54.368Z,75.17
2023-05-19T14:57:20.770Z,74.37
2023-05-19T14:59:47.239Z,75.79
2023-05-19T15:02:14.933Z,75.83
2023-05-19T15:04:41.310Z,75.71
2023-05-19T15:07:10.802Z,76.19
2023-05-19T15:09:37.674Z,76.81
2023-05-19T15:12:04.154Z,75.96
2023-05-19T15:14:31.289Z,75.59
2023-05-19T15:16:58.883Z,77.32
2023-05-19T15:19:26.082Z,76.74
2023-05-19T15:21:52.860Z,77.31
2023-05-19T15:24:19.324Z,76.60
2023-05-19T15:26:47.051Z,77.80
2023-05-19T15:29:15.530Z,77.27
2023-05-19T15:31:42.144Z,77.51
2023-05-19T15:34:08.644Z,77.53
2023-05-19T15:36:35.142Z,78.03
2023-05-19T15:39:01.575Z,77.72
2023-05-19T15:41:28.010Z,77.80
2023-05-19T15:43:54.457Z,77.86
2023-05-19T15:46:20.917Z,77.37
2023-05-19T15:48:47.483Z,76.83
2023-05-19T15:51:13.985Z,75.83
2023-05-19T15:53:41.034Z,76.51
2023-05-19T15:56:07.525Z,76.98
2023-05-19T15:58:33.944Z,77.09
2023-05-19T16:01:01.800Z,76.42
2023-05-19T16:03:29.855Z,77.32
2023-05-19T16:05:56.749Z,78.60
2023-05-19T16:08:23.209Z,77.75
2023-05-19T16:10:49.608Z,78.27
2023-05-19T16:13:16.268Z,78.94
2023-05-19T16:15:44.249Z,77.89
2023-05-19T16:18:11.584Z,79.46
2023-05-19T16:20:38.288Z,78.13
2023-05-19T16:23:04.767Z,79.38
2023-05-19T16:25:31.216Z,79.03
2023-05-19T16:27:57.751Z,78.95
2023-05-19T16:30:26.387Z,78.61
2023-05-19T16:32:58.160Z,78.45
2023-05-19T16:35:24.853Z,78.28
2023-05-19T16:37:51.309Z,78.95
2023-05-19T16:40:17.743Z,78.19
2023-05-19T16:42:44.152Z,78.32
2023-05-19T16:45:10.623Z,78.42
2023-05-19T16:47:37.219Z,78.03
2023-05-19T16:50:03.914Z,78.59
2023-05-19T16:52:30.474Z,77.90
2023-05-19T16:54:58.414Z,78.68
2023-05-19T16:57:24.858Z,78.52
2023-05-19T16:59:51.290Z,78.40
2023-05-19T17:02:34.121Z,78.95
2023-05-19T17:05:00.701Z,78.44
2023-05-19T17:07:29.151Z,78.41
2023-05-19T17:10:04.973Z,79.20
2023-05-19T17:12:40.618Z,79.76
2023-05-19T17:15:10.944Z,81.12
2023-05-19T17:17:37.333Z,80.79
2023-05-19T17:20:09.271Z,80.07
2023-05-19T17:22:37.380Z,80.40
2023-05-19T17:25:03.994Z,80.60
2023-05-19T17:27:37.992Z,79.72
2023-05-19T17:30:13.359Z,79.90
2023-05-19T17:35:24.955Z,79.84
2023-05-19T17:37:52.709Z,79.64
2023-05-19T17:40:19.150Z,79.41
2023-05-19T17:42:45.600Z,79.70
2023-05-19T17:45:14.743Z,78.86
2023-05-19T17:47:41.301Z,78.75
2023-05-19T17:50:07.938Z,78.86
2023-05-19T17:52:34.464Z,79.02
2023-05-19T17:55:02.491Z,78.82
2023-05-19T17:57:29.157Z,79.16
2023-05-19T17:59:55.846Z,79.60
2023-05-19T18:02:26.478Z,79.52
2023-05-19T18:04:53.574Z,79.70
2023-05-19T18:07:19.999Z,79.72
2023-05-19T18:09:46.763Z,79.43
2023-05-19T18:12:14.296Z,79.81
2023-05-19T18:14:42.055Z,80.61
2023-05-19T18:17:10.325Z,80.65
2023-05-19T18:19:36.965Z,80.13
2023-05-19T18:22:03.541Z,80.67
2023-05-19T18:24:30.850Z,81.87
2023-05-19T18:26:57.406Z,80.52
2023-05-19T18:29:26.876Z,82.08
2023-05-19T18:31:57.017Z,80.97
2023-05-19T18:34:23.505Z,81.21
2023-05-19T18:36:49.922Z,81.46
2023-05-19T18:39:16.537Z,82.09
2023-05-19T18:41:42.942Z,81.32
2023-05-19T18:44:09.392Z,81.94
2023-05-19T18:51:14.289Z,82.37
2023-05-19T18:53:40.785Z,82.47
2023-05-19T18:56:07.423Z,81.79
2023-05-19T18:59:07.979Z,81.87
2023-05-19T19:01:34.590Z,81.67
2023-05-19T19:04:02.588Z,81.49
2023-05-19T19:06:29.112Z,81.77
2023-05-19T19:08:55.512Z,81.34
2023-05-19T19:11:22.472Z,81.41
2023-05-19T19:13:51.561Z,81.37
2023-05-19T19:16:18.156Z,81.60
2023-05-19T19:18:45.924Z,81.29
2023-05-19T19:21:12.404Z,81.46
2023-05-19T19:23:38.762Z,82.11
2023-05-19T19:26:06.953Z,81.47
2023-05-19T19:28:35.280Z,81.12
2023-05-19T19:31:01.662Z,81.21
2023-05-19T19:33:28.060Z,81.60
2023-05-19T19:35:54.555Z,81.70
2023-05-19T19:38:21.133Z,81.62
2023-05-19T19:40:47.531Z,81.65
2023-05-19T19:43:14.030Z,81.90
2023-05-19T19:45:41.592Z,82.20
2023-05-19T19:48:08.174Z,81.68
2023-05-19T19:50:34.819Z,81.87
2023-05-19T19:53:04.074Z,82.30
2023-05-19T19:55:33.515Z,83.51
2023-05-19T19:57:59.902Z,84.11
2023-05-19T20:00:26.368Z,84.49
2023-05-19T20:03:04.314Z,82.36
2023-05-19T20:05:31.898Z,81.77
2023-05-19T20:07:58.452Z,82.04
2023-05-19T20:10:24.987Z,81.64
2023-05-19T20:12:51.893Z,81.62
2023-05-19T20:15:18.486Z,81.94
2023-05-19T20:17:44.899Z,81.93
2023-05-19T20:20:12.320Z,82.59
2023-05-19T20:22:39.043Z,82.78
2023-05-19T20:25:06.083Z,82.11
2023-05-19T20:27:32.592Z,81.46
2023-05-19T20:30:01.010Z,82.38
2023-05-19T20:32:28.518Z,82.15
2023-05-19T20:34:55.600Z,81.75
2023-05-19T20:37:22.336Z,82.08
2023-05-19T20:39:48.772Z,82.17
2023-05-19T20:42:15.171Z,82.02
2023-05-19T20:44:41.886Z,81.94
2023-05-19T20:47:10.416Z,81.79
2023-05-19T20:49:36.865Z,82.08
2023-05-19T20:52:03.349Z,82.03
2023-05-19T20:54:29.784Z,83.13
2023-05-19T20:56:56.638Z,82.56
2023-05-19T20:59:23.044Z,82.07
2023-05-19T21:01:49.479Z,82.00
2023-05-19T21:04:16.594Z,81.27
2023-05-19T21:06:43.053Z,82.17
2023-05-19T21:09:10.705Z,81.51
2023-05-19T21:11:37.249Z,81.21
2023-05-19T21:14:08.018Z,80.83
2023-05-19T21:16:34.554Z,80.33
2023-05-19T21:19:02.169Z,80.49
2023-05-19T21:21:28.636Z,80.18
2023-05-19T21:23:55.012Z,79.46
2023-05-19T21:26:22.110Z,79.82
2023-05-19T21:28:48.658Z,79.34
2023-05-19T21:31:15.250Z,79.29
2023-05-19T21:33:41.757Z,79.37
2023-05-19T21:36:08.242Z,79.74
2023-05-19T21:38:34.727Z,78.66
2023-05-19T21:41:01.170Z,78.64
2023-05-19T21:43:27.624Z,78.80
2023-05-19T21:45:53.993Z,78.15
2023-05-19T21:48:21.448Z,77.76
2023-05-19T21:50:57.762Z,77.46
2023-05-19T21:53:24.404Z,77.45
2023-05-19T21:55:50.962Z,77.77
2023-05-19T21:58:18.192Z,77.21
2023-05-19T22:00:49.030Z,77.13
2023-05-19T22:03:15.710Z,76.99
2023-05-19T22:05:42.150Z,77.09
2023-05-19T22:08:08.650Z,76.90
2023-05-19T22:10:37.115Z,76.37
2023-05-19T22:13:03.645Z,75.97
2023-05-19T22:15:30.051Z,76.34
2023-05-19T22:17:56.680Z,76.31
2023-05-19T22:20:23.164Z,76.43
2023-05-19T22:22:49.687Z,76.08
2023-05-19T22:25:16.479Z,76.10
2023-05-19T22:27:42.896Z,75.19
2023-05-19T22:30:09.390Z,75.54
2023-05-19T22:32:36.132Z,75.62
2023-05-19T22:35:02.608Z,74.72
2023-05-19T22:37:29.128Z,74.92
2023-05-19T22:39:55.487Z,75.14
2023-05-19T22:42:21.900Z,74.51
2023-05-19T22:44:48.353Z,74.37
2023-05-19T22:47:15.013Z,74.25
2023-05-19T22:49:41.580Z,73.83
2023-05-19T22:52:08.542Z,74.40
2023-05-19T22:54:34.920Z,73.72
2023-05-19T22:57:01.593Z,73.82
2023-05-19T22:59:28.062Z,73.38
2023-05-19T23:01:54.454Z,74.05
2023-05-19T23:04:21.007Z,74.23
2023-05-19T23:06:48.651Z,74.01
2023-05-19T23:09:15.951Z,74.29
2023-05-19T23:11:42.318Z,73.70
2023-05-19T23:14:09.854Z,74.10
2023-05-19T23:16:36.235Z,73.83
2023-05-19T23:19:02.692Z,74.55
2023-05-19T23:21:32.495Z,74.32
2023-05-19T23:23:59.448Z,74.40
2023-05-19T23:26:27.283Z,73.64
2023-05-19T23:28:53.729Z,73.64
2023-05-19T23:31:20.164Z,72.81
2023-05-19T23:33:46.649Z,72.74
2023-05-19T23:36:13.092Z,73.33
2023-05-19T23:38:39.493Z,72.97
2023-05-19T23:41:06.008Z,73.58
2023-05-19T23:43:32.560Z,73.87
2023-05-19T23:45:59.297Z,74.23
2023-05-19T23:48:26.589Z,74.14
2023-05-19T23:50:53.157Z,73.87
2023-05-19T23:53:19.851Z,74.25
2023-05-19T23:55:46.368Z,74.48
2023-05-19T23:58:12.847Z,74.25
